sensor_id;sensor_type;location;lat;lon;timestamp;P1;durP1;ratioP1;P2;durP2;ratioP2
5060;SDS011;2549;52.128;21.068;2024-01-11T00:01:47;58.70;;;22.60;;
5060;SDS011;2549;52.128;21.068;2024-01-11T00:04:15;63.75;;;24.73;;
5060;SDS011;2549;52.128;21.068;2024-01-11T00:06:42;50.97;;;19.35;;
5060;SDS011;2549;52.128;21.068;2024-01-11T00:09:10;52.80;;;21.98;;
5060;SDS011;2549;52.128;21.068;2024-01-11T00:11:37;53.13;;;21.83;;
5060;SDS011;2549;52.128;21.068;2024-01-11T00:14:05;59.50;;;23.25;;
5060;SDS011;2549;52.128;21.068;2024-01-11T00:16:32;59.40;;;21.40;;
5060;SDS011;2549;52.128;21.068;2024-01-11T00:18:59;51.28;;;20.80;;
5060;SDS011;2549;52.128;21.068;2024-01-11T00:21:27;62.28;;;20.55;;
5060;SDS011;2549;52.128;21.068;2024-01-11T00:23:54;57.15;;;20.55;;
5060;SDS011;2549;52.128;21.068;2024-01-11T00:26:20;50.70;;;21.98;;
5060;SDS011;2549;52.128;21.068;2024-01-11T00:28:47;51.08;;;20.95;;
5060;SDS011;2549;52.128;21.068;2024-01-11T00:31:14;54.80;;;21.27;;
5060;SDS011;2549;52.128;21.068;2024-01-11T00:33:41;44.80;;;19.25;;
5060;SDS011;2549;52.128;21.068;2024-01-11T00:36:08;58.80;;;21.33;;
5060;SDS011;2549;52.128;21.068;2024-01-11T00:38:35;49.22;;;20.38;;
5060;SDS011;2549;52.128;21.068;2024-01-11T00:41:02;60.15;;;22.17;;
5060;SDS011;2549;52.128;21.068;2024-01-11T00:43:29;52.40;;;21.63;;
5060;SDS011;2549;52.128;21.068;2024-01-11T00:45:56;51.80;;;19.95;;
5060;SDS011;2549;52.128;21.068;2024-01-11T00:48:23;51.80;;;20.48;;
5060;SDS011;2549;52.128;21.068;2024-01-11T00:50:50;54.78;;;20.95;;
5060;SDS011;2549;52.128;21.068;2024-01-11T00:53:17;59.85;;;20.73;;
5060;SDS011;2549;52.128;21.068;2024-01-11T00:55:44;59.45;;;22.88;;
5060;SDS011;2549;52.128;21.068;2024-01-11T00:58:11;54.05;;;22.00;;
5060;SDS011;2549;52.128;21.068;2024-01-11T01:00:38;68.45;;;21.67;;
5060;SDS011;2549;52.128;21.068;2024-01-11T01:03:05;57.85;;;21.20;;
5060;SDS011;2549;52.128;21.068;2024-01-11T01:05:32;49.22;;;20.33;;
5060;SDS011;2549;52.128;21.068;2024-01-11T01:07:59;57.92;;;23.65;;
5060;SDS011;2549;52.128;21.068;2024-01-11T01:10:26;54.13;;;21.52;;
5060;SDS011;2549;52.128;21.068;2024-01-11T01:12:52;60.47;;;21.50;;
5060;SDS011;2549;52.128;21.068;2024-01-11T01:15:19;61.85;;;21.33;;
5060;SDS011;2549;52.128;21.068;2024-01-11T01:17:46;51.95;;;22.20;;
5060;SDS011;2549;52.128;21.068;2024-01-11T01:20:13;62.45;;;23.33;;
5060;SDS011;2549;52.128;21.068;2024-01-11T01:22:41;55.90;;;20.80;;
5060;SDS011;2549;52.128;21.068;2024-01-11T01:25:08;50.05;;;20.40;;
5060;SDS011;2549;52.128;21.068;2024-01-11T01:27:35;53.95;;;21.15;;
5060;SDS011;2549;52.128;21.068;2024-01-11T01:30:02;52.42;;;21.58;;
5060;SDS011;2549;52.128;21.068;2024-01-11T01:32:29;52.25;;;21.20;;
5060;SDS011;2549;52.128;21.068;2024-01-11T01:34:57;54.67;;;22.05;;
5060;SDS011;2549;52.128;21.068;2024-01-11T01:37:24;57.90;;;23.15;;
5060;SDS011;2549;52.128;21.068;2024-01-11T01:39:50;54.63;;;23.52;;
5060;SDS011;2549;52.128;21.068;2024-01-11T01:42:17;68.63;;;22.05;;
5060;SDS011;2549;52.128;21.068;2024-01-11T01:44:44;61.90;;;23.17;;
5060;SDS011;2549;52.128;21.068;2024-01-11T01:47:11;61.78;;;23.13;;
5060;SDS011;2549;52.128;21.068;2024-01-11T01:49:39;58.13;;;21.90;;
5060;SDS011;2549;52.128;21.068;2024-01-11T01:52:06;59.85;;;21.98;;
5060;SDS011;2549;52.128;21.068;2024-01-11T01:54:34;53.83;;;21.15;;
5060;SDS011;2549;52.128;21.068;2024-01-11T01:57:01;71.30;;;23.80;;
5060;SDS011;2549;52.128;21.068;2024-01-11T01:59:30;61.97;;;23.92;;
5060;SDS011;2549;52.128;21.068;2024-01-11T02:01:57;63.28;;;22.83;;
5060;SDS011;2549;52.128;21.068;2024-01-11T02:04:24;60.63;;;22.17;;
5060;SDS011;2549;52.128;21.068;2024-01-11T02:06:51;54.30;;;20.35;;
5060;SDS011;2549;52.128;21.068;2024-01-11T02:09:20;49.35;;;18.95;;
5060;SDS011;2549;52.128;21.068;2024-01-11T02:11:47;60.33;;;19.15;;
5060;SDS011;2549;52.128;21.068;2024-01-11T02:14:14;57.53;;;22.15;;
5060;SDS011;2549;52.128;21.068;2024-01-11T02:16:41;55.70;;;21.98;;
5060;SDS011;2549;52.128;21.068;2024-01-11T02:19:08;61.38;;;21.83;;
5060;SDS011;2549;52.128;21.068;2024-01-11T02:21:43;57.38;;;22.27;;
5060;SDS011;2549;52.128;21.068;2024-01-11T02:24:12;60.97;;;22.88;;
5060;SDS011;2549;52.128;21.068;2024-01-11T02:29:29;52.55;;;20.02;;
5060;SDS011;2549;52.128;21.068;2024-01-11T02:31:57;53.95;;;20.65;;
5060;SDS011;2549;52.128;21.068;2024-01-11T02:34:26;58.95;;;20.92;;
5060;SDS011;2549;52.128;21.068;2024-01-11T02:36:54;55.33;;;17.88;;
5060;SDS011;2549;52.128;21.068;2024-01-11T02:39:22;53.47;;;20.40;;
5060;SDS011;2549;52.128;21.068;2024-01-11T02:41:50;59.72;;;21.58;;
5060;SDS011;2549;52.128;21.068;2024-01-11T02:44:18;66.70;;;21.70;;
5060;SDS011;2549;52.128;21.068;2024-01-11T02:46:45;37.20;;;16.92;;
5060;SDS011;2549;52.128;21.068;2024-01-11T02:49:12;53.28;;;20.98;;
5060;SDS011;2549;52.128;21.068;2024-01-11T02:51:39;67.55;;;22.90;;
5060;SDS011;2549;52.128;21.068;2024-01-11T02:54:06;69.05;;;22.75;;
5060;SDS011;2549;52.128;21.068;2024-01-11T02:56:32;56.55;;;22.63;;
5060;SDS011;2549;52.128;21.068;2024-01-11T02:58:59;52.70;;;21.75;;
5060;SDS011;2549;52.128;21.068;2024-01-11T03:01:26;59.42;;;21.20;;
5060;SDS011;2549;52.128;21.068;2024-01-11T03:03:54;36.08;;;13.57;;
5060;SDS011;2549;52.128;21.068;2024-01-11T03:06:21;60.42;;;22.80;;
5060;SDS011;2549;52.128;21.068;2024-01-11T03:08:49;54.88;;;21.17;;
5060;SDS011;2549;52.128;21.068;2024-01-11T03:11:16;57.20;;;21.27;;
5060;SDS011;2549;52.128;21.068;2024-01-11T03:13:43;66.25;;;23.50;;
5060;SDS011;2549;52.128;21.068;2024-01-11T03:16:10;57.15;;;21.65;;
5060;SDS011;2549;52.128;21.068;2024-01-11T03:18:37;59.50;;;20.95;;
5060;SDS011;2549;52.128;21.068;2024-01-11T03:21:04;57.60;;;22.25;;
5060;SDS011;2549;52.128;21.068;2024-01-11T03:23:31;54.35;;;18.55;;
5060;SDS011;2549;52.128;21.068;2024-01-11T03:25:58;51.63;;;20.73;;
5060;SDS011;2549;52.128;21.068;2024-01-11T03:28:25;49.50;;;20.00;;
5060;SDS011;2549;52.128;21.068;2024-01-11T03:30:52;48.47;;;18.90;;
5060;SDS011;2549;52.128;21.068;2024-01-11T03:33:19;52.05;;;20.80;;
5060;SDS011;2549;52.128;21.068;2024-01-11T03:35:46;52.80;;;18.38;;
5060;SDS011;2549;52.128;21.068;2024-01-11T03:38:13;56.95;;;19.77;;
5060;SDS011;2549;52.128;21.068;2024-01-11T03:40:40;61.92;;;21.98;;
5060;SDS011;2549;52.128;21.068;2024-01-11T03:43:07;60.47;;;19.80;;
5060;SDS011;2549;52.128;21.068;2024-01-11T03:45:34;53.55;;;18.90;;
5060;SDS011;2549;52.128;21.068;2024-01-11T03:48:01;53.30;;;18.23;;
5060;SDS011;2549;52.128;21.068;2024-01-11T03:50:28;49.92;;;18.17;;
5060;SDS011;2549;52.128;21.068;2024-01-11T03:52:55;46.95;;;19.13;;
5060;SDS011;2549;52.128;21.068;2024-01-11T03:55:22;63.58;;;21.23;;
5060;SDS011;2549;52.128;21.068;2024-01-11T03:57:48;55.33;;;20.13;;
5060;SDS011;2549;52.128;21.068;2024-01-11T04:00:15;62.80;;;19.67;;
5060;SDS011;2549;52.128;21.068;2024-01-11T04:02:43;44.35;;;19.60;;
5060;SDS011;2549;52.128;21.068;2024-01-11T04:05:10;52.92;;;19.67;;
5060;SDS011;2549;52.128;21.068;2024-01-11T04:07:37;53.95;;;19.65;;
5060;SDS011;2549;52.128;21.068;2024-01-11T04:10:04;47.65;;;17.88;;
5060;SDS011;2549;52.128;21.068;2024-01-11T04:12:31;46.83;;;17.85;;
5060;SDS011;2549;52.128;21.068;2024-01-11T04:14:58;59.60;;;20.10;;
5060;SDS011;2549;52.128;21.068;2024-01-11T04:17:25;55.55;;;19.67;;
5060;SDS011;2549;52.128;21.068;2024-01-11T04:19:52;50.10;;;18.02;;
5060;SDS011;2549;52.128;21.068;2024-01-11T04:22:19;45.90;;;17.70;;
5060;SDS011;2549;52.128;21.068;2024-01-11T04:24:45;44.55;;;16.85;;
5060;SDS011;2549;52.128;21.068;2024-01-11T04:27:12;50.60;;;19.73;;
5060;SDS011;2549;52.128;21.068;2024-01-11T04:29:39;44.75;;;17.35;;
5060;SDS011;2549;52.128;21.068;2024-01-11T04:32:06;44.88;;;15.55;;
5060;SDS011;2549;52.128;21.068;2024-01-11T04:34:33;48.70;;;17.42;;
5060;SDS011;2549;52.128;21.068;2024-01-11T04:37:00;44.88;;;18.83;;
5060;SDS011;2549;52.128;21.068;2024-01-11T04:39:26;42.75;;;17.02;;
5060;SDS011;2549;52.128;21.068;2024-01-11T04:41:53;40.65;;;17.33;;
5060;SDS011;2549;52.128;21.068;2024-01-11T04:44:20;38.35;;;16.80;;
5060;SDS011;2549;52.128;21.068;2024-01-11T04:46:48;38.13;;;17.30;;
5060;SDS011;2549;52.128;21.068;2024-01-11T04:49:15;42.60;;;17.58;;
5060;SDS011;2549;52.128;21.068;2024-01-11T04:51:42;39.92;;;15.80;;
5060;SDS011;2549;52.128;21.068;2024-01-11T04:54:08;38.38;;;16.52;;
5060;SDS011;2549;52.128;21.068;2024-01-11T04:56:35;33.30;;;14.00;;
5060;SDS011;2549;52.128;21.068;2024-01-11T04:59:02;42.53;;;15.68;;
5060;SDS011;2549;52.128;21.068;2024-01-11T05:01:29;37.13;;;15.75;;
5060;SDS011;2549;52.128;21.068;2024-01-11T05:03:56;44.13;;;18.25;;
5060;SDS011;2549;52.128;21.068;2024-01-11T05:06:23;41.50;;;16.52;;
5060;SDS011;2549;52.128;21.068;2024-01-11T05:08:51;36.00;;;15.43;;
5060;SDS011;2549;52.128;21.068;2024-01-11T05:11:19;37.03;;;15.38;;
5060;SDS011;2549;52.128;21.068;2024-01-11T05:13:51;30.98;;;12.63;;
5060;SDS011;2549;52.128;21.068;2024-01-11T05:16:25;51.08;;;17.02;;
5060;SDS011;2549;52.128;21.068;2024-01-11T05:18:53;30.42;;;14.07;;
5060;SDS011;2549;52.128;21.068;2024-01-11T05:21:22;40.30;;;15.32;;
5060;SDS011;2549;52.128;21.068;2024-01-11T05:23:48;43.72;;;16.63;;
5060;SDS011;2549;52.128;21.068;2024-01-11T05:26:16;34.30;;;14.80;;
5060;SDS011;2549;52.128;21.068;2024-01-11T05:28:43;45.88;;;15.60;;
5060;SDS011;2549;52.128;21.068;2024-01-11T05:31:11;34.20;;;15.45;;
5060;SDS011;2549;52.128;21.068;2024-01-11T05:33:39;38.67;;;14.20;;
5060;SDS011;2549;52.128;21.068;2024-01-11T05:36:06;40.65;;;15.10;;
5060;SDS011;2549;52.128;21.068;2024-01-11T05:38:34;36.28;;;15.95;;
5060;SDS011;2549;52.128;21.068;2024-01-11T05:41:01;30.13;;;12.93;;
5060;SDS011;2549;52.128;21.068;2024-01-11T05:43:28;33.67;;;13.05;;
5060;SDS011;2549;52.128;21.068;2024-01-11T05:45:55;49.83;;;15.38;;
5060;SDS011;2549;52.128;21.068;2024-01-11T05:48:22;35.25;;;12.13;;
5060;SDS011;2549;52.128;21.068;2024-01-11T05:50:49;33.22;;;13.75;;
5060;SDS011;2549;52.128;21.068;2024-01-11T05:53:16;33.88;;;13.38;;
5060;SDS011;2549;52.128;21.068;2024-01-11T05:55:47;36.67;;;14.57;;
5060;SDS011;2549;52.128;21.068;2024-01-11T05:58:15;37.60;;;13.75;;
5060;SDS011;2549;52.128;21.068;2024-01-11T06:00:42;27.77;;;11.82;;
5060;SDS011;2549;52.128;21.068;2024-01-11T06:03:11;31.48;;;12.88;;
5060;SDS011;2549;52.128;21.068;2024-01-11T06:05:38;26.65;;;13.07;;
5060;SDS011;2549;52.128;21.068;2024-01-11T06:08:06;23.50;;;11.68;;
5060;SDS011;2549;52.128;21.068;2024-01-11T06:10:33;28.75;;;12.10;;
5060;SDS011;2549;52.128;21.068;2024-01-11T06:13:00;29.77;;;12.65;;
5060;SDS011;2549;52.128;21.068;2024-01-11T06:15:27;23.90;;;10.65;;
5060;SDS011;2549;52.128;21.068;2024-01-11T06:17:54;25.33;;;11.43;;
5060;SDS011;2549;52.128;21.068;2024-01-11T06:20:21;24.67;;;10.45;;
5060;SDS011;2549;52.128;21.068;2024-01-11T06:22:48;24.70;;;11.63;;
5060;SDS011;2549;52.128;21.068;2024-01-11T06:25:15;26.00;;;11.13;;
5060;SDS011;2549;52.128;21.068;2024-01-11T06:27:42;22.05;;;10.20;;
5060;SDS011;2549;52.128;21.068;2024-01-11T06:30:12;27.63;;;10.43;;
5060;SDS011;2549;52.128;21.068;2024-01-11T06:32:39;23.48;;;10.70;;
5060;SDS011;2549;52.128;21.068;2024-01-11T06:35:06;24.50;;;10.93;;
5060;SDS011;2549;52.128;21.068;2024-01-11T06:37:34;20.98;;;10.00;;
5060;SDS011;2549;52.128;21.068;2024-01-11T06:40:01;24.30;;;9.02;;
5060;SDS011;2549;52.128;21.068;2024-01-11T06:42:32;22.08;;;10.63;;
5060;SDS011;2549;52.128;21.068;2024-01-11T06:44:59;23.02;;;10.05;;
5060;SDS011;2549;52.128;21.068;2024-01-11T06:47:27;23.98;;;9.88;;
5060;SDS011;2549;52.128;21.068;2024-01-11T06:49:54;23.15;;;8.90;;
5060;SDS011;2549;52.128;21.068;2024-01-11T06:52:21;23.40;;;8.75;;
5060;SDS011;2549;52.128;21.068;2024-01-11T06:54:48;18.55;;;9.07;;
5060;SDS011;2549;52.128;21.068;2024-01-11T06:57:15;23.13;;;9.70;;
5060;SDS011;2549;52.128;21.068;2024-01-11T06:59:42;22.95;;;9.77;;
5060;SDS011;2549;52.128;21.068;2024-01-11T07:02:10;21.05;;;9.05;;
5060;SDS011;2549;52.128;21.068;2024-01-11T07:04:37;22.23;;;9.90;;
5060;SDS011;2549;52.128;21.068;2024-01-11T07:07:04;29.85;;;10.43;;
5060;SDS011;2549;52.128;21.068;2024-01-11T07:09:31;21.27;;;8.75;;
5060;SDS011;2549;52.128;21.068;2024-01-11T07:11:58;20.30;;;9.63;;
5060;SDS011;2549;52.128;21.068;2024-01-11T07:14:25;18.33;;;8.82;;
5060;SDS011;2549;52.128;21.068;2024-01-11T07:16:52;21.95;;;9.60;;
5060;SDS011;2549;52.128;21.068;2024-01-11T07:19:19;19.88;;;9.10;;
5060;SDS011;2549;52.128;21.068;2024-01-11T07:21:46;17.27;;;8.60;;
5060;SDS011;2549;52.128;21.068;2024-01-11T07:24:13;25.27;;;10.70;;
5060;SDS011;2549;52.128;21.068;2024-01-11T07:26:40;22.55;;;10.23;;
5060;SDS011;2549;52.128;21.068;2024-01-11T07:29:08;29.45;;;10.38;;
5060;SDS011;2549;52.128;21.068;2024-01-11T07:31:35;24.08;;;9.10;;
5060;SDS011;2549;52.128;21.068;2024-01-11T07:34:01;23.95;;;8.73;;
5060;SDS011;2549;52.128;21.068;2024-01-11T07:36:29;21.70;;;8.27;;
5060;SDS011;2549;52.128;21.068;2024-01-11T07:38:56;27.42;;;12.65;;
5060;SDS011;2549;52.128;21.068;2024-01-11T07:41:23;21.15;;;9.65;;
5060;SDS011;2549;52.128;21.068;2024-01-11T07:43:50;21.75;;;8.85;;
5060;SDS011;2549;52.128;21.068;2024-01-11T07:46:20;25.00;;;8.93;;
5060;SDS011;2549;52.128;21.068;2024-01-11T07:49:01;20.95;;;8.38;;
5060;SDS011;2549;52.128;21.068;2024-01-11T07:51:33;24.55;;;8.82;;
5060;SDS011;2549;52.128;21.068;2024-01-11T07:54:01;17.27;;;8.35;;
5060;SDS011;2549;52.128;21.068;2024-01-11T07:56:29;21.95;;;8.65;;
5060;SDS011;2549;52.128;21.068;2024-01-11T07:58:56;26.35;;;10.43;;
5060;SDS011;2549;52.128;21.068;2024-01-11T08:01:23;18.55;;;8.60;;
5060;SDS011;2549;52.128;21.068;2024-01-11T08:03:50;29.50;;;11.25;;
5060;SDS011;2549;52.128;21.068;2024-01-11T08:06:19;30.45;;;14.05;;
5060;SDS011;2549;52.128;21.068;2024-01-11T08:08:46;28.15;;;11.02;;
5060;SDS011;2549;52.128;21.068;2024-01-11T08:11:18;24.63;;;10.25;;
5060;SDS011;2549;52.128;21.068;2024-01-11T08:13:45;29.38;;;11.32;;
5060;SDS011;2549;52.128;21.068;2024-01-11T08:16:16;22.48;;;9.65;;
5060;SDS011;2549;52.128;21.068;2024-01-11T08:18:44;29.50;;;10.52;;
5060;SDS011;2549;52.128;21.068;2024-01-11T08:21:12;23.85;;;10.82;;
5060;SDS011;2549;52.128;21.068;2024-01-11T08:23:39;22.15;;;9.95;;
5060;SDS011;2549;52.128;21.068;2024-01-11T08:26:11;27.73;;;10.32;;
5060;SDS011;2549;52.128;21.068;2024-01-11T08:28:40;33.60;;;12.25;;
5060;SDS011;2549;52.128;21.068;2024-01-11T08:31:08;26.83;;;9.85;;
5060;SDS011;2549;52.128;21.068;2024-01-11T08:33:35;29.25;;;12.05;;
5060;SDS011;2549;52.128;21.068;2024-01-11T08:36:05;29.48;;;10.05;;
5060;SDS011;2549;52.128;21.068;2024-01-11T08:38:33;23.67;;;9.43;;
5060;SDS011;2549;52.128;21.068;2024-01-11T08:41:02;26.27;;;11.68;;
5060;SDS011;2549;52.128;21.068;2024-01-11T08:43:29;24.25;;;10.93;;
5060;SDS011;2549;52.128;21.068;2024-01-11T08:45:56;27.75;;;9.15;;
5060;SDS011;2549;52.128;21.068;2024-01-11T08:48:23;22.90;;;9.63;;
5060;SDS011;2549;52.128;21.068;2024-01-11T08:50:50;28.80;;;10.13;;
5060;SDS011;2549;52.128;21.068;2024-01-11T08:53:17;20.75;;;9.73;;
5060;SDS011;2549;52.128;21.068;2024-01-11T08:55:44;23.30;;;9.88;;
5060;SDS011;2549;52.128;21.068;2024-01-11T08:58:12;28.45;;;9.50;;
5060;SDS011;2549;52.128;21.068;2024-01-11T09:00:39;22.20;;;9.93;;
5060;SDS011;2549;52.128;21.068;2024-01-11T09:03:06;27.60;;;10.27;;
5060;SDS011;2549;52.128;21.068;2024-01-11T09:05:34;28.75;;;10.05;;
5060;SDS011;2549;52.128;21.068;2024-01-11T09:08:01;34.45;;;12.00;;
5060;SDS011;2549;52.128;21.068;2024-01-11T09:10:28;26.58;;;10.48;;
5060;SDS011;2549;52.128;21.068;2024-01-11T09:12:55;26.58;;;10.23;;
5060;SDS011;2549;52.128;21.068;2024-01-11T09:15:22;25.33;;;9.60;;
5060;SDS011;2549;52.128;21.068;2024-01-11T09:17:49;30.38;;;9.60;;
5060;SDS011;2549;52.128;21.068;2024-01-11T09:20:17;22.35;;;9.45;;
5060;SDS011;2549;52.128;21.068;2024-01-11T09:22:45;22.30;;;9.68;;
5060;SDS011;2549;52.128;21.068;2024-01-11T09:25:12;25.00;;;9.65;;
5060;SDS011;2549;52.128;21.068;2024-01-11T09:27:39;27.05;;;9.48;;
5060;SDS011;2549;52.128;21.068;2024-01-11T09:30:06;25.52;;;9.20;;
5060;SDS011;2549;52.128;21.068;2024-01-11T09:32:34;23.00;;;8.98;;
5060;SDS011;2549;52.128;21.068;2024-01-11T09:35:03;21.90;;;8.93;;
5060;SDS011;2549;52.128;21.068;2024-01-11T09:37:31;26.38;;;11.27;;
5060;SDS011;2549;52.128;21.068;2024-01-11T09:39:58;24.55;;;9.43;;
5060;SDS011;2549;52.128;21.068;2024-01-11T09:42:27;18.75;;;8.40;;
5060;SDS011;2549;52.128;21.068;2024-01-11T09:44:54;12.57;;;7.80;;
5060;SDS011;2549;52.128;21.068;2024-01-11T09:47:23;16.83;;;8.20;;
5060;SDS011;2549;52.128;21.068;2024-01-11T09:49:51;23.02;;;11.15;;
5060;SDS011;2549;52.128;21.068;2024-01-11T09:52:21;31.00;;;10.52;;
5060;SDS011;2549;52.128;21.068;2024-01-11T09:54:51;19.85;;;8.35;;
5060;SDS011;2549;52.128;21.068;2024-01-11T09:57:21;18.02;;;8.63;;
5060;SDS011;2549;52.128;21.068;2024-01-11T09:59:53;15.30;;;7.70;;
5060;SDS011;2549;52.128;21.068;2024-01-11T10:02:23;18.65;;;6.82;;
5060;SDS011;2549;52.128;21.068;2024-01-11T10:04:52;20.98;;;8.75;;
5060;SDS011;2549;52.128;21.068;2024-01-11T10:07:22;18.75;;;8.07;;
5060;SDS011;2549;52.128;21.068;2024-01-11T10:09:51;19.17;;;8.45;;
5060;SDS011;2549;52.128;21.068;2024-01-11T10:12:22;18.25;;;8.75;;
5060;SDS011;2549;52.128;21.068;2024-01-11T10:14:52;18.75;;;8.32;;
5060;SDS011;2549;52.128;21.068;2024-01-11T10:17:19;16.50;;;7.90;;
5060;SDS011;2549;52.128;21.068;2024-01-11T10:19:52;25.88;;;8.30;;
5060;SDS011;2549;52.128;21.068;2024-01-11T10:22:20;14.63;;;7.63;;
5060;SDS011;2549;52.128;21.068;2024-01-11T10:24:57;15.75;;;8.27;;
5060;SDS011;2549;52.128;21.068;2024-01-11T10:27:35;23.83;;;8.82;;
5060;SDS011;2549;52.128;21.068;2024-01-11T10:30:02;19.85;;;7.85;;
5060;SDS011;2549;52.128;21.068;2024-01-11T10:32:29;22.25;;;8.23;;
5060;SDS011;2549;52.128;21.068;2024-01-11T10:34:56;22.83;;;9.77;;
5060;SDS011;2549;52.128;21.068;2024-01-11T10:37:23;20.95;;;8.70;;
5060;SDS011;2549;52.128;21.068;2024-01-11T10:39:51;22.67;;;9.63;;
5060;SDS011;2549;52.128;21.068;2024-01-11T10:42:19;22.27;;;9.45;;
5060;SDS011;2549;52.128;21.068;2024-01-11T10:44:54;22.90;;;8.63;;
5060;SDS011;2549;52.128;21.068;2024-01-11T10:47:24;25.02;;;9.77;;
5060;SDS011;2549;52.128;21.068;2024-01-11T10:49:54;18.35;;;8.05;;
5060;SDS011;2549;52.128;21.068;2024-01-11T10:52:25;26.25;;;9.90;;
5060;SDS011;2549;52.128;21.068;2024-01-11T10:54:57;22.98;;;11.02;;
5060;SDS011;2549;52.128;21.068;2024-01-11T10:57:25;25.00;;;9.60;;
5060;SDS011;2549;52.128;21.068;2024-01-11T10:59:54;24.48;;;10.07;;
5060;SDS011;2549;52.128;21.068;2024-01-11T11:02:23;31.92;;;9.30;;
5060;SDS011;2549;52.128;21.068;2024-01-11T11:04:51;29.40;;;11.77;;
5060;SDS011;2549;52.128;21.068;2024-01-11T11:07:19;20.38;;;9.38;;
5060;SDS011;2549;52.128;21.068;2024-01-11T11:09:46;25.38;;;9.18;;
5060;SDS011;2549;52.128;21.068;2024-01-11T11:12:18;24.25;;;10.35;;
5060;SDS011;2549;52.128;21.068;2024-01-11T11:14:46;24.83;;;10.52;;
5060;SDS011;2549;52.128;21.068;2024-01-11T11:17:14;32.10;;;10.63;;
5060;SDS011;2549;52.128;21.068;2024-01-11T11:19:42;27.95;;;9.95;;
5060;SDS011;2549;52.128;21.068;2024-01-11T11:22:09;24.95;;;10.88;;
5060;SDS011;2549;52.128;21.068;2024-01-11T11:24:38;26.83;;;12.10;;
5060;SDS011;2549;52.128;21.068;2024-01-11T11:27:05;31.38;;;11.80;;
5060;SDS011;2549;52.128;21.068;2024-01-11T11:29:33;22.30;;;10.27;;
5060;SDS011;2549;52.128;21.068;2024-01-11T11:32:00;31.90;;;11.93;;
5060;SDS011;2549;52.128;21.068;2024-01-11T11:34:45;34.60;;;12.30;;
5060;SDS011;2549;52.128;21.068;2024-01-11T11:37:19;27.38;;;11.93;;
5060;SDS011;2549;52.128;21.068;2024-01-11T11:39:49;31.23;;;12.23;;
5060;SDS011;2549;52.128;21.068;2024-01-11T11:42:16;43.30;;;13.20;;
5060;SDS011;2549;52.128;21.068;2024-01-11T11:44:47;31.58;;;11.88;;
5060;SDS011;2549;52.128;21.068;2024-01-11T11:47:18;35.15;;;12.52;;
5060;SDS011;2549;52.128;21.068;2024-01-11T11:50:06;27.55;;;12.32;;
5060;SDS011;2549;52.128;21.068;2024-01-11T11:52:37;31.95;;;12.95;;
5060;SDS011;2549;52.128;21.068;2024-01-11T11:55:06;29.98;;;11.52;;
5060;SDS011;2549;52.128;21.068;2024-01-11T11:57:34;32.72;;;12.55;;
5060;SDS011;2549;52.128;21.068;2024-01-11T12:00:02;27.52;;;10.43;;
5060;SDS011;2549;52.128;21.068;2024-01-11T12:02:33;33.83;;;13.20;;
5060;SDS011;2549;52.128;21.068;2024-01-11T12:05:02;36.60;;;12.07;;
5060;SDS011;2549;52.128;21.068;2024-01-11T12:07:32;33.92;;;12.63;;
5060;SDS011;2549;52.128;21.068;2024-01-11T12:09:59;42.88;;;15.10;;
5060;SDS011;2549;52.128;21.068;2024-01-11T12:12:26;37.70;;;12.73;;
5060;SDS011;2549;52.128;21.068;2024-01-11T12:14:55;30.77;;;13.10;;
5060;SDS011;2549;52.128;21.068;2024-01-11T12:17:25;37.85;;;11.57;;
5060;SDS011;2549;52.128;21.068;2024-01-11T12:19:53;34.85;;;14.05;;
5060;SDS011;2549;52.128;21.068;2024-01-11T12:22:23;32.35;;;12.65;;
5060;SDS011;2549;52.128;21.068;2024-01-11T12:24:50;29.73;;;11.55;;
5060;SDS011;2549;52.128;21.068;2024-01-11T12:27:17;30.38;;;11.35;;
5060;SDS011;2549;52.128;21.068;2024-01-11T12:29:45;40.63;;;13.70;;
5060;SDS011;2549;52.128;21.068;2024-01-11T12:32:24;37.33;;;13.07;;
5060;SDS011;2549;52.128;21.068;2024-01-11T12:34:51;35.60;;;13.45;;
5060;SDS011;2549;52.128;21.068;2024-01-11T12:37:26;35.25;;;12.23;;
5060;SDS011;2549;52.128;21.068;2024-01-11T12:39:57;38.97;;;12.50;;
5060;SDS011;2549;52.128;21.068;2024-01-11T12:42:28;35.42;;;13.15;;
5060;SDS011;2549;52.128;21.068;2024-01-11T12:44:55;31.08;;;10.50;;
5060;SDS011;2549;52.128;21.068;2024-01-11T12:47:24;32.25;;;12.40;;
5060;SDS011;2549;52.128;21.068;2024-01-11T12:49:52;38.00;;;13.07;;
5060;SDS011;2549;52.128;21.068;2024-01-11T12:52:19;39.20;;;13.50;;
5060;SDS011;2549;52.128;21.068;2024-01-11T12:54:46;30.90;;;11.80;;
5060;SDS011;2549;52.128;21.068;2024-01-11T12:57:17;32.25;;;10.60;;
5060;SDS011;2549;52.128;21.068;2024-01-11T12:59:49;27.63;;;12.93;;
5060;SDS011;2549;52.128;21.068;2024-01-11T13:02:16;42.20;;;13.35;;
5060;SDS011;2549;52.128;21.068;2024-01-11T13:04:45;32.20;;;12.80;;
5060;SDS011;2549;52.128;21.068;2024-01-11T13:07:12;39.83;;;13.90;;
5060;SDS011;2549;52.128;21.068;2024-01-11T13:09:40;30.15;;;11.60;;
5060;SDS011;2549;52.128;21.068;2024-01-11T13:12:07;31.95;;;12.55;;
5060;SDS011;2549;52.128;21.068;2024-01-11T13:14:34;34.22;;;13.50;;
5060;SDS011;2549;52.128;21.068;2024-01-11T13:17:01;37.03;;;12.48;;
5060;SDS011;2549;52.128;21.068;2024-01-11T13:19:28;34.53;;;12.90;;
5060;SDS011;2549;52.128;21.068;2024-01-11T13:21:55;30.85;;;12.75;;
5060;SDS011;2549;52.128;21.068;2024-01-11T13:24:23;32.15;;;12.48;;
5060;SDS011;2549;52.128;21.068;2024-01-11T13:26:50;33.58;;;12.43;;
5060;SDS011;2549;52.128;21.068;2024-01-11T13:29:16;33.38;;;14.23;;
5060;SDS011;2549;52.128;21.068;2024-01-11T13:31:43;27.50;;;12.43;;
5060;SDS011;2549;52.128;21.068;2024-01-11T13:34:10;39.58;;;14.48;;
5060;SDS011;2549;52.128;21.068;2024-01-11T13:36:37;29.20;;;12.18;;
5060;SDS011;2549;52.128;21.068;2024-01-11T13:39:04;32.40;;;13.25;;
5060;SDS011;2549;52.128;21.068;2024-01-11T13:41:34;40.05;;;14.43;;
5060;SDS011;2549;52.128;21.068;2024-01-11T13:44:01;32.40;;;14.60;;
5060;SDS011;2549;52.128;21.068;2024-01-11T13:46:28;34.67;;;13.50;;
5060;SDS011;2549;52.128;21.068;2024-01-11T13:48:54;27.05;;;12.40;;
5060;SDS011;2549;52.128;21.068;2024-01-11T13:51:21;34.67;;;13.75;;
5060;SDS011;2549;52.128;21.068;2024-01-11T13:53:49;33.10;;;13.30;;
5060;SDS011;2549;52.128;21.068;2024-01-11T13:56:16;28.83;;;12.73;;
5060;SDS011;2549;52.128;21.068;2024-01-11T13:58:43;34.10;;;14.70;;
5060;SDS011;2549;52.128;21.068;2024-01-11T14:01:11;35.92;;;13.27;;
5060;SDS011;2549;52.128;21.068;2024-01-11T14:03:38;30.30;;;13.65;;
5060;SDS011;2549;52.128;21.068;2024-01-11T14:06:05;43.22;;;13.15;;
5060;SDS011;2549;52.128;21.068;2024-01-11T14:08:33;32.20;;;12.85;;
5060;SDS011;2549;52.128;21.068;2024-01-11T14:11:00;36.72;;;14.50;;
5060;SDS011;2549;52.128;21.068;2024-01-11T14:13:26;32.60;;;13.82;;
5060;SDS011;2549;52.128;21.068;2024-01-11T14:15:53;36.78;;;13.90;;
5060;SDS011;2549;52.128;21.068;2024-01-11T14:18:22;34.15;;;13.60;;
5060;SDS011;2549;52.128;21.068;2024-01-11T14:20:50;36.75;;;12.80;;
5060;SDS011;2549;52.128;21.068;2024-01-11T14:23:17;32.33;;;12.95;;
5060;SDS011;2549;52.128;21.068;2024-01-11T14:25:44;29.92;;;11.13;;
5060;SDS011;2549;52.128;21.068;2024-01-11T14:28:11;29.67;;;13.00;;
5060;SDS011;2549;52.128;21.068;2024-01-11T14:30:38;38.22;;;15.48;;
5060;SDS011;2549;52.128;21.068;2024-01-11T14:33:05;28.98;;;13.57;;
5060;SDS011;2549;52.128;21.068;2024-01-11T14:35:32;34.58;;;14.18;;
5060;SDS011;2549;52.128;21.068;2024-01-11T14:37:59;36.97;;;13.88;;
5060;SDS011;2549;52.128;21.068;2024-01-11T14:40:26;35.17;;;14.98;;
5060;SDS011;2549;52.128;21.068;2024-01-11T14:42:53;35.55;;;14.95;;
5060;SDS011;2549;52.128;21.068;2024-01-11T14:45:20;40.90;;;14.70;;